Pagrindinis puslapis
METAR-TAF:

METAR-TAF

Oro uostai :

Monte Terminillo, Italija

platuma: 42-28N, ilguma: 012-59E, Aukštis: 1874 m

Dabartinis oras

Ataskaita buvo paskelbta 55 minutes, ne 09:55 UTC
Vėjas 3 kt nuo kintamojo kryptimis
Temperatūra 12°C
Drėgmė 54%
Slėgis 1028 hPa

METAR: LIRK 210955Z AUTO VRB03KT //// 12/03 Q1028

Laikas: 12:50 (10:50 UTC)


TAF: trūkstamas

Orai ataskaitas ir orų prognozės (METAR, TAF).

turimą stotys yra geltonos ir raudonos taškus žemėlapyje.

Perkelti pele per norėdami pamatyti stoties vardą.

Tada spustelėkite, norėdami matyti oro stebėjimo ir prognozės.

Norėdami pakeisti žemėlapį: spustelėkite ant žalios mygtukų su juodo kryžiaus žemyn,; žalią mygtuką su brūkšneliu, jei norite nutolinti; arba žalių rodyklių gretimoms žemėlapius.


METAR-TAF: